PWSweather.com
Personal Weather Stations
Station Observations
KAZTUCSO57
Countryside Manor, Tucson, AZ 85742

Countryside ManorTucson, AZ 85742

Lat: 32.3692, Lon: -111.066

Elevation: 2307

Station Type: Davis VP Pro+ 6163

http://frogville.us

Latest ConditionsUpdated 4:00:00 PM MST Saturday, Jul 23, 2016
Currently Today's Max Today's Min Today's Average
Temperature 108.8°F42.7°C 108.8°F42.7°C 83.2°F28.4°C 95.5°F35.3°C
Dew Point 57.5°F14.2°C 62.7°F17.1°C 55.6°F13.1°C 59.2°F15.1°C
Winds 5.8 mph WSW9.3 kmh WSW 6.9 mph WSW11.1 kmh WSW - 1.7 mph 2.7 kmh
Wind Gusts 8.1 mph13.0 kmh 11.5 mph18.5 kmh - -
Humidity 19% 50% 18% 32%
Pressure 29.61 in1002.7 mb 29.76 in1007.8 mb 29.61 in1002.7 mb -
Hour Temp Dew Point Humidity Winds Wind Gusts Pressure Precip Precip Rate Daily Precip Total
04:00 PM 108.8°F42.7°C 57.5°F14.2°C 19% 5.8 mph WSW9.3 kmh WSW 8.1 mph13.0 kmh 29.61 in1002.7 mb - 0.00 in0.0 mm 0.00 in0.0 mm
03:50 PM 108.7°F42.6°C 55.9°F13.3°C 18% 3.5 mph SW5.6 kmh SW 5.8 mph9.3 kmh 29.61 in1002.7 mb - 0.00 in0.0 mm 0.00 in0.0 mm
03:40 PM 108.7°F42.6°C 57.4°F14.1°C 19% 3.5 mph WSW5.6 kmh WSW 5.8 mph9.3 kmh 29.62 in1003.0 mb - 0.00 in0.0 mm 0.00 in0.0 mm
03:30 PM 108.8°F42.7°C 56.0°F13.3°C 18% 5.8 mph WSW9.3 kmh WSW 10.4 mph16.7 kmh 29.62 in1003.0 mb - 0.00 in0.0 mm 0.00 in0.0 mm
03:20 PM 108.6°F42.6°C 57.3°F14.1°C 19% 3.5 mph WSW5.6 kmh WSW 9.2 mph14.8 kmh 29.63 in1003.4 mb - 0.00 in0.0 mm 0.00 in0.0 mm
03:10 PM 108.4°F42.4°C 57.2°F14.0°C 19% 6.9 mph WSW11.1 kmh WSW 11.5 mph18.5 kmh 29.64 in1003.7 mb - 0.00 in0.0 mm 0.00 in0.0 mm
03:00 PM 108.7°F42.6°C 57.4°F14.1°C 19% 2.3 mph SW3.7 kmh SW 4.6 mph7.4 kmh 29.64 in1003.7 mb - 0.00 in0.0 mm 0.00 in0.0 mm
02:50 PM 108.7°F42.6°C 57.4°F14.1°C 19% 4.6 mph WSW7.4 kmh WSW 6.9 mph11.1 kmh 29.65 in1004.1 mb - 0.00 in0.0 mm 0.00 in0.0 mm
02:40 PM 108.4°F42.4°C 55.6°F13.1°C 18% 3.5 mph W5.6 kmh W 9.2 mph14.8 kmh 29.66 in1004.4 mb - 0.00 in0.0 mm 0.00 in0.0 mm
02:30 PM 108.4°F42.4°C 57.2°F14.0°C 19% 3.5 mph WSW5.6 kmh WSW 8.1 mph13.0 kmh 29.66 in1004.4 mb - 0.00 in0.0 mm 0.00 in0.0 mm
02:20 PM 108.5°F42.5°C 57.2°F14.0°C 19% 4.6 mph WSW7.4 kmh WSW 5.8 mph9.3 kmh 29.66 in1004.4 mb - 0.00 in0.0 mm 0.00 in0.0 mm
02:10 PM 108.1°F42.3°C 58.4°F14.7°C 20% 2.3 mph WNW3.7 kmh WNW 3.5 mph5.6 kmh 29.67 in1004.7 mb - 0.00 in0.0 mm 0.00 in0.0 mm
02:00 PM 107.7°F42.1°C 58.0°F14.4°C 20% 3.5 mph W5.6 kmh W 6.9 mph11.1 kmh 29.68 in1005.1 mb - 0.00 in0.0 mm 0.00 in0.0 mm
01:50 PM 107.8°F42.1°C 58.1°F14.5°C 20% 3.5 mph WNW5.6 kmh WNW 3.5 mph5.6 kmh 29.68 in1005.1 mb - 0.00 in0.0 mm 0.00 in0.0 mm
01:40 PM 107.7°F42.1°C 58.0°F14.4°C 20% 4.6 mph SW7.4 kmh SW 8.1 mph13.0 kmh 29.68 in1005.1 mb - 0.00 in0.0 mm 0.00 in0.0 mm
01:30 PM 107.9°F42.2°C 58.2°F14.6°C 20% 2.3 mph WSW3.7 kmh WSW 3.5 mph5.6 kmh 29.69 in1005.4 mb - 0.00 in0.0 mm 0.00 in0.0 mm
01:20 PM 107.4°F41.9°C 57.8°F14.3°C 20% 5.8 mph WSW9.3 kmh WSW 8.1 mph13.0 kmh 29.69 in1005.4 mb - 0.00 in0.0 mm 0.00 in0.0 mm
01:10 PM 107.7°F42.1°C 58.0°F14.4°C 20% 2.3 mph WSW3.7 kmh WSW 3.5 mph5.6 kmh 29.70 in1005.8 mb - 0.00 in0.0 mm 0.00 in0.0 mm
01:00 PM 107.6°F42.0°C 57.9°F14.4°C 20% 2.3 mph NW3.7 kmh NW 6.9 mph11.1 kmh 29.70 in1005.8 mb - 0.00 in0.0 mm 0.00 in0.0 mm
12:50 PM 107.3°F41.8°C 59.0°F15.0°C 21% 5.8 mph WSW9.3 kmh WSW 9.2 mph14.8 kmh 29.70 in1005.8 mb - 0.00 in0.0 mm 0.00 in0.0 mm
12:40 PM 106.5°F41.4°C 58.4°F14.7°C 21% 3.5 mph W5.6 kmh W 9.2 mph14.8 kmh 29.71 in1006.1 mb - 0.00 in0.0 mm 0.00 in0.0 mm
12:30 PM 105.9°F41.1°C 59.2°F15.1°C 22% 4.6 mph W7.4 kmh W 10.4 mph16.7 kmh 29.71 in1006.1 mb - 0.00 in0.0 mm 0.00 in0.0 mm
12:20 PM 105.0°F40.6°C 59.7°F15.4°C 23% 5.8 mph SW9.3 kmh SW 5.8 mph9.3 kmh 29.72 in1006.4 mb - 0.00 in0.0 mm 0.00 in0.0 mm
12:10 PM 103.2°F39.6°C 58.2°F14.6°C 23% 2.3 mph WSW3.7 kmh WSW 8.1 mph13.0 kmh 29.72 in1006.4 mb - 0.00 in0.0 mm 0.00 in0.0 mm
12:00 PM 105.1°F40.6°C 58.6°F14.8°C 22% 4.6 mph SE7.4 kmh SE 6.9 mph11.1 kmh 29.73 in1006.8 mb - 0.00 in0.0 mm 0.00 in0.0 mm
11:50 AM 105.5°F40.8°C 58.9°F14.9°C 22% 2.3 mph W3.7 kmh W 5.8 mph9.3 kmh 29.73 in1006.8 mb - 0.00 in0.0 mm 0.00 in0.0 mm
11:40 AM 105.0°F40.6°C 58.5°F14.7°C 22% 5.8 mph WSW9.3 kmh WSW 11.5 mph18.5 kmh 29.73 in1006.8 mb - 0.00 in0.0 mm 0.00 in0.0 mm
11:30 AM 104.3°F40.2°C 57.9°F14.4°C 22% 2.3 mph SW3.7 kmh SW 5.8 mph9.3 kmh 29.73 in1006.8 mb - 0.00 in0.0 mm 0.00 in0.0 mm
11:20 AM 103.9°F39.9°C 58.8°F14.9°C 23% 2.3 mph NW3.7 kmh NW 3.5 mph5.6 kmh 29.74 in1007.1 mb - 0.00 in0.0 mm 0.00 in0.0 mm
11:10 AM 103.8°F39.9°C 58.7°F14.8°C 23% 1.2 mph NW1.9 kmh NW 3.5 mph5.6 kmh 29.74 in1007.1 mb - 0.00 in0.0 mm 0.00 in0.0 mm
11:00 AM 103.1°F39.5°C 59.3°F15.2°C 24% 2.3 mph WSW3.7 kmh WSW 6.9 mph11.1 kmh 29.74 in1007.1 mb - 0.00 in0.0 mm 0.00 in0.0 mm
10:50 AM 103.1°F39.5°C 58.1°F14.5°C 23% 2.3 mph NE3.7 kmh NE 3.5 mph5.6 kmh 29.75 in1007.5 mb - 0.00 in0.0 mm 0.00 in0.0 mm
10:40 AM 102.3°F39.1°C 59.8°F15.4°C 25% 1.2 mph WNW1.9 kmh WNW 3.5 mph5.6 kmh 29.75 in1007.5 mb - 0.00 in0.0 mm 0.00 in0.0 mm
10:30 AM 101.2°F38.4°C 60.0°F15.6°C 26% 2.3 mph NW3.7 kmh NW 3.5 mph5.6 kmh 29.75 in1007.5 mb - 0.00 in0.0 mm 0.00 in0.0 mm
10:20 AM 99.8°F37.7°C 60.9°F16.1°C 28% 3.5 mph WSW5.6 kmh WSW 4.6 mph7.4 kmh 29.75 in1007.5 mb - 0.00 in0.0 mm 0.00 in0.0 mm
10:10 AM 99.0°F37.2°C 60.2°F15.7°C 28% 2.3 mph WSW3.7 kmh WSW 3.5 mph5.6 kmh 29.75 in1007.5 mb - 0.00 in0.0 mm 0.00 in0.0 mm
10:00 AM 98.3°F36.8°C 59.6°F15.3°C 28% 3.5 mph WSW5.6 kmh WSW 5.8 mph9.3 kmh 29.75 in1007.5 mb - 0.00 in0.0 mm 0.00 in0.0 mm
09:50 AM 98.4°F36.9°C 60.7°F15.9°C 29% 2.3 mph SW3.7 kmh SW 4.6 mph7.4 kmh 29.75 in1007.5 mb - 0.00 in0.0 mm 0.00 in0.0 mm
09:40 AM 98.1°F36.7°C 60.4°F15.8°C 29% 1.2 mph WSW1.9 kmh WSW 2.3 mph3.7 kmh 29.75 in1007.5 mb - 0.00 in0.0 mm 0.00 in0.0 mm
09:30 AM 97.5°F36.4°C 60.9°F16.1°C 30% 1.2 mph WSW1.9 kmh WSW 2.3 mph3.7 kmh 29.75 in1007.5 mb - 0.00 in0.0 mm 0.00 in0.0 mm
09:20 AM 97.4°F36.3°C 60.7°F15.9°C 30% 1.2 mph SW1.9 kmh SW 2.3 mph3.7 kmh 29.76 in1007.8 mb - 0.00 in0.0 mm 0.00 in0.0 mm
09:10 AM 96.7°F35.9°C 62.0°F16.7°C 32% Calm Calm 2.3 mph3.7 kmh 29.76 in1007.8 mb - 0.00 in0.0 mm 0.00 in0.0 mm
09:00 AM 95.6°F35.3°C 62.0°F16.7°C 33% Calm Calm 2.3 mph3.7 kmh 29.76 in1007.8 mb - 0.00 in0.0 mm 0.00 in0.0 mm
08:50 AM 95.0°F35.0°C 61.4°F16.3°C 33% 1.2 mph E1.9 kmh E 3.5 mph5.6 kmh 29.76 in1007.8 mb - 0.00 in0.0 mm 0.00 in0.0 mm
08:40 AM 94.2°F34.6°C 61.5°F16.4°C 34% Calm Calm 1.2 mph1.9 kmh 29.76 in1007.8 mb - 0.00 in0.0 mm 0.00 in0.0 mm
08:30 AM 93.5°F34.2°C 61.8°F16.6°C 35% 1.2 mph ESE1.9 kmh ESE 2.3 mph3.7 kmh 29.76 in1007.8 mb - 0.00 in0.0 mm 0.00 in0.0 mm
08:20 AM 92.6°F33.7°C 61.7°F16.5°C 36% Calm Calm 2.3 mph3.7 kmh 29.76 in1007.8 mb - 0.00 in0.0 mm 0.00 in0.0 mm
08:10 AM 91.9°F33.3°C 61.9°F16.6°C 37% 1.2 mph E1.9 kmh E 1.2 mph1.9 kmh 29.76 in1007.8 mb - 0.00 in0.0 mm 0.00 in0.0 mm
08:00 AM 91.8°F33.2°C 62.6°F17.0°C 38% 1.2 mph SE1.9 kmh SE 3.5 mph5.6 kmh 29.76 in1007.8 mb - 0.00 in0.0 mm 0.00 in0.0 mm
07:50 AM 91.2°F32.9°C 62.7°F17.1°C 39% Calm Calm 1.2 mph1.9 kmh 29.76 in1007.8 mb - 0.00 in0.0 mm 0.00 in0.0 mm
07:40 AM 90.6°F32.6°C 62.3°F16.8°C 39% 1.2 mph E1.9 kmh E 3.5 mph5.6 kmh 29.76 in1007.8 mb - 0.00 in0.0 mm 0.00 in0.0 mm
07:30 AM 90.1°F32.3°C 62.5°F16.9°C 40% 2.3 mph E3.7 kmh E 4.6 mph7.4 kmh 29.76 in1007.8 mb - 0.00 in0.0 mm 0.00 in0.0 mm
07:20 AM 89.3°F31.8°C 62.5°F16.9°C 41% 1.2 mph SSE1.9 kmh SSE 2.3 mph3.7 kmh 29.75 in1007.5 mb - 0.00 in0.0 mm 0.00 in0.0 mm
07:10 AM 88.4°F31.3°C 62.4°F16.9°C 42% 2.3 mph E3.7 kmh E 3.5 mph5.6 kmh 29.75 in1007.5 mb - 0.00 in0.0 mm 0.00 in0.0 mm
07:00 AM 87.4°F30.8°C 62.2°F16.8°C 43% 1.2 mph E1.9 kmh E 1.2 mph1.9 kmh 29.74 in1007.1 mb - 0.00 in0.0 mm 0.00 in0.0 mm
06:50 AM 86.3°F30.2°C 61.9°F16.6°C 44% 1.2 mph E1.9 kmh E 3.5 mph5.6 kmh 29.74 in1007.1 mb - 0.00 in0.0 mm 0.00 in0.0 mm
06:40 AM 85.1°F29.5°C 62.0°F16.7°C 46% 1.2 mph SE1.9 kmh SE 2.3 mph3.7 kmh 29.74 in1007.1 mb - 0.00 in0.0 mm 0.00 in0.0 mm
06:30 AM 83.9°F28.8°C 62.7°F17.1°C 49% Calm Calm 1.2 mph1.9 kmh 29.74 in1007.1 mb - 0.00 in0.0 mm 0.00 in0.0 mm
06:20 AM 83.2°F28.4°C 62.1°F16.7°C 49% Calm Calm 1.2 mph1.9 kmh 29.74 in1007.1 mb - 0.00 in0.0 mm 0.00 in0.0 mm
06:10 AM 83.2°F28.4°C 62.6°F17.0°C 50% 1.2 mph SE1.9 kmh SE 2.3 mph3.7 kmh 29.74 in1007.1 mb - 0.00 in0.0 mm 0.00 in0.0 mm
06:00 AM 83.6°F28.7°C 62.4°F16.9°C 49% Calm Calm -- 29.73 in1006.8 mb - 0.00 in0.0 mm 0.00 in0.0 mm
05:50 AM 84.1°F28.9°C 61.7°F16.5°C 47% Calm Calm 1.2 mph1.9 kmh 29.73 in1006.8 mb - 0.00 in0.0 mm 0.00 in0.0 mm
05:40 AM 84.6°F29.2°C 61.5°F16.4°C 46% Calm Calm -- 29.73 in1006.8 mb - 0.00 in0.0 mm 0.00 in0.0 mm
05:30 AM 84.8°F29.3°C 61.1°F16.2°C 45% Calm Calm -- 29.73 in1006.8 mb - 0.00 in0.0 mm 0.00 in0.0 mm
05:20 AM 85.0°F29.4°C 61.3°F16.3°C 45% Calm Calm -- 29.73 in1006.8 mb - 0.00 in0.0 mm 0.00 in0.0 mm
05:10 AM 85.2°F29.6°C 60.8°F16.0°C 44% Calm Calm 1.2 mph1.9 kmh 29.73 in1006.8 mb - 0.00 in0.0 mm 0.00 in0.0 mm
05:00 AM 85.5°F29.7°C 60.4°F15.8°C 43% Calm Calm 1.2 mph1.9 kmh 29.73 in1006.8 mb - 0.00 in0.0 mm 0.00 in0.0 mm
04:50 AM 85.8°F29.9°C 59.4°F15.2°C 41% Calm Calm -- 29.73 in1006.8 mb - 0.00 in0.0 mm 0.00 in0.0 mm
04:40 AM 86.0°F30.0°C 59.6°F15.3°C 41% Calm Calm 1.2 mph1.9 kmh 29.72 in1006.4 mb - 0.00 in0.0 mm 0.00 in0.0 mm
04:30 AM 86.1°F30.1°C 58.2°F14.6°C 39% Calm Calm -- 29.72 in1006.4 mb - 0.00 in0.0 mm 0.00 in0.0 mm
04:20 AM 86.2°F30.1°C 59.0°F15.0°C 40% 2.3 mph SW3.7 kmh SW 3.5 mph5.6 kmh 29.72 in1006.4 mb - 0.00 in0.0 mm 0.00 in0.0 mm
04:10 AM 86.4°F30.2°C 60.6°F15.9°C 42% 1.2 mph SSW1.9 kmh SSW 2.3 mph3.7 kmh 29.72 in1006.4 mb - 0.00 in0.0 mm 0.00 in0.0 mm
04:00 AM 86.0°F30.0°C 60.2°F15.7°C 42% 2.3 mph WSW3.7 kmh WSW 5.8 mph9.3 kmh 29.71 in1006.1 mb - 0.00 in0.0 mm 0.00 in0.0 mm
03:50 AM 85.9°F29.9°C 58.1°F14.5°C 39% Calm Calm -- 29.71 in1006.1 mb - 0.00 in0.0 mm 0.00 in0.0 mm
03:40 AM 86.0°F30.0°C 57.5°F14.2°C 38% Calm Calm -- 29.71 in1006.1 mb - 0.00 in0.0 mm 0.00 in0.0 mm
03:30 AM 86.2°F30.1°C 57.6°F14.2°C 38% Calm Calm -- 29.71 in1006.1 mb - 0.00 in0.0 mm 0.00 in0.0 mm
03:20 AM 86.3°F30.2°C 57.7°F14.3°C 38% Calm Calm -- 29.70 in1005.8 mb - 0.00 in0.0 mm 0.00 in0.0 mm
03:10 AM 86.4°F30.2°C 57.8°F14.3°C 38% Calm Calm -- 29.70 in1005.8 mb - 0.00 in0.0 mm 0.00 in0.0 mm
03:00 AM 86.5°F30.3°C 57.9°F14.4°C 38% Calm Calm 1.2 mph1.9 kmh 29.70 in1005.8 mb - 0.00 in0.0 mm 0.00 in0.0 mm
02:50 AM 86.7°F30.4°C 58.1°F14.5°C 38% Calm Calm -- 29.70 in1005.8 mb - 0.00 in0.0 mm 0.00 in0.0 mm
02:40 AM 87.1°F30.6°C 57.7°F14.3°C 37% Calm Calm 1.2 mph1.9 kmh 29.69 in1005.4 mb - 0.00 in0.0 mm 0.00 in0.0 mm
02:30 AM 87.7°F30.9°C 58.2°F14.6°C 37% Calm Calm -- 29.69 in1005.4 mb - 0.00 in0.0 mm 0.00 in0.0 mm
02:20 AM 88.3°F31.3°C 57.9°F14.4°C 36% Calm Calm -- 29.68 in1005.1 mb - 0.00 in0.0 mm 0.00 in0.0 mm
02:10 AM 88.6°F31.4°C 57.4°F14.1°C 35% Calm Calm -- 29.68 in1005.1 mb - 0.00 in0.0 mm 0.00 in0.0 mm
02:00 AM 88.7°F31.5°C 57.5°F14.2°C 35% Calm Calm -- 29.68 in1005.1 mb - 0.00 in0.0 mm 0.00 in0.0 mm
01:50 AM 88.9°F31.6°C 56.9°F13.8°C 34% Calm Calm 1.2 mph1.9 kmh 29.68 in1005.1 mb - 0.00 in0.0 mm 0.00 in0.0 mm
01:40 AM 89.2°F31.8°C 57.1°F13.9°C 34% Calm Calm -- 29.69 in1005.4 mb - 0.00 in0.0 mm 0.00 in0.0 mm
01:30 AM 89.5°F31.9°C 57.4°F14.1°C 34% Calm Calm -- 29.68 in1005.1 mb - 0.00 in0.0 mm 0.00 in0.0 mm
01:20 AM 89.7°F32.1°C 57.6°F14.2°C 34% Calm Calm -- 29.68 in1005.1 mb - 0.00 in0.0 mm 0.00 in0.0 mm
01:10 AM 90.0°F32.2°C 57.9°F14.4°C 34% 1.2 mph NE1.9 kmh NE 2.3 mph3.7 kmh 29.68 in1005.1 mb - 0.00 in0.0 mm 0.00 in0.0 mm
01:00 AM 90.4°F32.4°C 56.5°F13.6°C 32% 1.2 mph NE1.9 kmh NE 2.3 mph3.7 kmh 29.68 in1005.1 mb - 0.00 in0.0 mm 0.00 in0.0 mm
12:50 AM 90.5°F32.5°C 56.6°F13.7°C 32% Calm Calm 2.3 mph3.7 kmh 29.68 in1005.1 mb - 0.00 in0.0 mm 0.00 in0.0 mm
12:40 AM 90.6°F32.6°C 56.7°F13.7°C 32% 1.2 mph NE1.9 kmh NE 2.3 mph3.7 kmh 29.68 in1005.1 mb - 0.00 in0.0 mm 0.00 in0.0 mm
12:30 AM 90.9°F32.7°C 57.0°F13.9°C 32% 1.2 mph NE1.9 kmh NE 2.3 mph3.7 kmh 29.69 in1005.4 mb - 0.00 in0.0 mm 0.00 in0.0 mm
12:20 AM 91.8°F33.2°C 56.8°F13.8°C 31% 1.2 mph NE1.9 kmh NE 3.5 mph5.6 kmh 29.69 in1005.4 mb - 0.00 in0.0 mm 0.00 in0.0 mm
12:10 AM 92.6°F33.7°C 55.7°F13.2°C 29% Calm Calm 1.2 mph1.9 kmh 29.70 in1005.8 mb - 0.00 in0.0 mm 0.00 in0.0 mm
12:00 AM 92.7°F33.7°C 55.8°F13.2°C 29% Calm Calm -- 29.70 in1005.8 mb - 0.00 in0.0 mm 0.00 in0.0 mm